Terminal Aerodrome Forecast
Issued by NWS

Home | Current Version | Previous Version | Graphics & Text | Print | Product List | Glossary On
Versions: 1 2 3 4 5 6 7 8 9 10 11 12 13 14 15 16
000
FTUS43 KIWX 221500 AAA
TAFSBN
TAF AMD
KSBN 221502Z 2215/2312 12010KT 5SM HZ OVC080
     FM221800 12010KT P6SM OVC040
     FM222000 12010KT 5SM -RA BR OVC015
     FM230100 11014KT 3SM -SHRA OVC007
     FM230500 12012KT 2SM RA OVC004=

USA.gov is the U.S. government's official web portal to all federal, state and local government web resources and services.